AFR24 CYUL-LFPG
Flight info
| Callsign | AFR24 |
|---|---|
| Flight time | N/A |
| Altitude | 35000 |
| Route | KEBGO DCT RABIK Q951 DANOL N371A BUDAR/M084F350 DCT 5030N05000W 5330N04000W 5430N03000W 5430N02000W DCT VENER/N0487F350 DCT KOKIB DCT WTP DCT DIRUM DCT MORAG DCT NUCHU L18 MID Y803 SFD/N0458F230 M605 XIDIL UM605 BIBAX |
| Aircraft | B77W/H-SDE1E2E3FGHIJ2J3J4J5M1RWXY/LB1D1 |
Departure
| Time | N/A |
|---|---|
| Airport | Montreal / Pierre Elliott Trudeau International Airport (CYUL) |
Arrival
| Time | 2026-05-01 13:09 |
|---|---|
| Airport | Charles de Gaulle International Airport (LFPG) |
| Time | Latitude | Longitude | Altitude | Speed | Heading |
|---|---|---|---|---|---|
| 2026-05-01 09:43 | 45.28185 | -73.02629 | 16734 ft | 411 kts | 88° |
| 2026-05-01 09:43 | 45.28380 | -72.98556 | 17531 ft | 416 kts | 88° |
| 2026-05-01 09:44 | 45.28739 | -72.90310 | 18961 ft | 425 kts | 89° |
| 2026-05-01 09:44 | 45.28913 | -72.86097 | 19695 ft | 428 kts | 89° |
| 2026-05-01 09:44 | 45.29083 | -72.81862 | 20434 ft | 430 kts | 90° |
| 2026-05-01 09:45 | 45.29252 | -72.77608 | 21144 ft | 434 kts | 90° |
| 2026-05-01 09:45 | 45.29591 | -72.68972 | 22487 ft | 441 kts | 90° |
| 2026-05-01 09:45 | 45.29761 | -72.64603 | 23145 ft | 444 kts | 90° |
| 2026-05-01 09:46 | 45.29932 | -72.60211 | 23742 ft | 448 kts | 90° |
| 2026-05-01 09:46 | 45.30144 | -72.55773 | 24267 ft | 452 kts | 90° |
| 2026-05-01 09:46 | 45.30391 | -72.51292 | 24773 ft | 456 kts | 89° |
| 2026-05-01 09:46 | 45.30650 | -72.46790 | 25277 ft | 459 kts | 89° |
| 2026-05-01 09:47 | 45.30906 | -72.42302 | 25776 ft | 462 kts | 90° |
| 2026-05-01 09:47 | 45.31160 | -72.37737 | 26245 ft | 466 kts | 90° |
| 2026-05-01 09:47 | 45.31411 | -72.33135 | 26728 ft | 469 kts | 90° |
| 2026-05-01 09:47 | 45.31657 | -72.28495 | 27173 ft | 472 kts | 90° |
| 2026-05-01 09:48 | 45.31903 | -72.23818 | 27610 ft | 475 kts | 90° |
| 2026-05-01 09:48 | 45.32147 | -72.19116 | 28050 ft | 478 kts | 90° |
| 2026-05-01 09:48 | 45.32391 | -72.14394 | 28463 ft | 482 kts | 91° |
| 2026-05-01 09:48 | 45.32636 | -72.09612 | 28853 ft | 484 kts | 91° |
| 2026-05-01 09:49 | 45.32880 | -72.04821 | 29229 ft | 487 kts | 91° |
| 2026-05-01 09:49 | 45.33124 | -71.99999 | 29577 ft | 490 kts | 91° |
| 2026-05-01 09:49 | 45.33367 | -71.95160 | 29911 ft | 492 kts | 91° |
| 2026-05-01 09:49 | 45.33606 | -71.90362 | 30264 ft | 492 kts | 91° |
| 2026-05-01 09:50 | 45.33874 | -71.85515 | 30624 ft | 493 kts | 89° |
| 2026-05-01 09:50 | 45.34352 | -71.80677 | 30984 ft | 495 kts | 86° |
| 2026-05-01 09:50 | 45.34895 | -71.75836 | 31334 ft | 496 kts | 86° |
| 2026-05-01 09:50 | 45.35451 | -71.71000 | 31671 ft | 496 kts | 86° |
| 2026-05-01 09:51 | 45.36004 | -71.66164 | 32020 ft | 495 kts | 86° |
| 2026-05-01 09:51 | 45.36547 | -71.61311 | 32351 ft | 495 kts | 86° |
| 2026-05-01 09:51 | 45.37080 | -71.56470 | 32695 ft | 495 kts | 86° |
| 2026-05-01 09:51 | 45.37604 | -71.51627 | 33008 ft | 495 kts | 86° |
| 2026-05-01 09:52 | 45.38122 | -71.46791 | 33363 ft | 495 kts | 86° |
| 2026-05-01 09:52 | 45.38639 | -71.41952 | 33700 ft | 495 kts | 86° |
| 2026-05-01 09:52 | 45.39154 | -71.37110 | 34000 ft | 495 kts | 86° |
| 2026-05-01 09:52 | 45.39667 | -71.32267 | 34238 ft | 495 kts | 86° |
| 2026-05-01 09:53 | 45.40173 | -71.27474 | 34453 ft | 496 kts | 86° |
| 2026-05-01 09:53 | 45.40611 | -71.23317 | 34639 ft | 497 kts | 86° |
| 2026-05-01 09:53 | 45.41097 | -71.18680 | 34801 ft | 498 kts | 86° |
| 2026-05-01 09:53 | 45.41609 | -71.13775 | 34838 ft | 502 kts | 86° |
| 2026-05-01 09:54 | 45.42630 | -71.03958 | 34869 ft | 498 kts | 86° |
| 2026-05-01 09:54 | 45.43237 | -70.94295 | 34870 ft | 490 kts | 91° |
| 2026-05-01 09:55 | 45.43636 | -70.84613 | 34864 ft | 489 kts | 91° |
| 2026-05-01 09:55 | 45.44059 | -70.74943 | 34857 ft | 489 kts | 91° |
| 2026-05-01 09:56 | 45.44504 | -70.65255 | 34860 ft | 490 kts | 90° |
| 2026-05-01 09:56 | 45.45386 | -70.55576 | 34848 ft | 493 kts | 86° |
| 2026-05-01 09:57 | 45.46389 | -70.45961 | 34841 ft | 494 kts | 86° |
| 2026-05-01 09:57 | 45.47378 | -70.36278 | 34830 ft | 494 kts | 86° |
| 2026-05-01 09:58 | 45.48340 | -70.26571 | 34830 ft | 494 kts | 87° |
| 2026-05-01 09:58 | 45.49285 | -70.16861 | 34814 ft | 494 kts | 87° |
| 2026-05-01 09:59 | 45.50221 | -70.07155 | 34814 ft | 494 kts | 87° |
| 2026-05-01 09:59 | 45.51149 | -69.97446 | 34811 ft | 493 kts | 87° |
| 2026-05-01 10:00 | 45.52061 | -69.87818 | 34800 ft | 493 kts | 87° |
| 2026-05-01 10:00 | 45.52971 | -69.78128 | 34800 ft | 492 kts | 87° |
| 2026-05-01 10:01 | 45.53872 | -69.68448 | 34801 ft | 492 kts | 87° |
| 2026-05-01 10:01 | 45.54619 | -69.60336 | 34791 ft | 492 kts | 87° |
| 2026-05-01 10:02 | 45.55500 | -69.50711 | 34789 ft | 492 kts | 88° |
| 2026-05-01 10:02 | 45.56376 | -69.41022 | 34771 ft | 492 kts | 88° |
| 2026-05-01 10:03 | 45.57246 | -69.31330 | 34769 ft | 492 kts | 88° |
| 2026-05-01 10:03 | 45.58087 | -69.21862 | 34762 ft | 491 kts | 88° |
| 2026-05-01 10:04 | 45.58934 | -69.12240 | 34763 ft | 491 kts | 88° |
| 2026-05-01 10:04 | 45.59775 | -69.02576 | 34764 ft | 490 kts | 88° |
| 2026-05-01 10:05 | 45.60610 | -68.92892 | 34757 ft | 490 kts | 88° |
| 2026-05-01 10:05 | 45.61433 | -68.83242 | 34755 ft | 489 kts | 88° |
| 2026-05-01 10:06 | 45.62249 | -68.73595 | 34761 ft | 489 kts | 88° |
| 2026-05-01 10:06 | 45.63049 | -68.64018 | 34757 ft | 488 kts | 88° |
| 2026-05-01 10:07 | 45.63848 | -68.54364 | 34766 ft | 488 kts | 88° |
| 2026-05-01 10:07 | 45.64637 | -68.44727 | 34755 ft | 488 kts | 88° |
| 2026-05-01 10:08 | 45.65807 | -68.30256 | 34745 ft | 488 kts | 88° |
| 2026-05-01 10:09 | 45.66575 | -68.20616 | 34743 ft | 488 kts | 88° |
| 2026-05-01 10:09 | 45.67332 | -68.11026 | 34741 ft | 488 kts | 88° |
| 2026-05-01 10:10 | 45.68084 | -68.01383 | 34744 ft | 488 kts | 88° |
| 2026-05-01 10:10 | 45.69217 | -67.86899 | 34742 ft | 489 kts | 86° |
| 2026-05-01 10:11 | 45.70946 | -67.77399 | 34751 ft | 497 kts | 74° |
| 2026-05-01 10:11 | 45.73897 | -67.68443 | 34751 ft | 502 kts | 66° |
| 2026-05-01 10:12 | 45.77203 | -67.59625 | 34736 ft | 503 kts | 66° |
| 2026-05-01 10:13 | 45.82139 | -67.46333 | 34738 ft | 503 kts | 66° |
| 2026-05-01 10:13 | 45.85381 | -67.37437 | 34737 ft | 503 kts | 67° |
| 2026-05-01 10:14 | 45.90194 | -67.24126 | 34740 ft | 502 kts | 67° |
| 2026-05-01 10:14 | 45.93407 | -67.15209 | 34744 ft | 502 kts | 67° |
| 2026-05-01 10:15 | 45.96613 | -67.06287 | 34747 ft | 502 kts | 67° |
| 2026-05-01 10:15 | 45.99793 | -66.97411 | 34757 ft | 502 kts | 67° |
| 2026-05-01 10:16 | 46.02979 | -66.88488 | 34750 ft | 502 kts | 67° |
| 2026-05-01 10:17 | 46.07753 | -66.75058 | 34752 ft | 502 kts | 67° |
| 2026-05-01 10:17 | 46.12512 | -66.61603 | 34748 ft | 502 kts | 67° |
| 2026-05-01 10:18 | 46.17253 | -66.48134 | 34748 ft | 501 kts | 67° |
| 2026-05-01 10:19 | 46.20381 | -66.39207 | 34767 ft | 501 kts | 67° |
| 2026-05-01 10:19 | 46.23525 | -66.30207 | 34770 ft | 501 kts | 67° |
| 2026-05-01 10:20 | 46.28215 | -66.16723 | 34778 ft | 500 kts | 67° |
| 2026-05-01 10:20 | 46.31314 | -66.07776 | 34783 ft | 501 kts | 67° |
| 2026-05-01 10:21 | 46.35978 | -65.94249 | 34788 ft | 501 kts | 67° |
| 2026-05-01 10:22 | 46.40629 | -65.80696 | 34793 ft | 501 kts | 67° |
| 2026-05-01 10:23 | 46.45267 | -65.67104 | 34798 ft | 502 kts | 67° |
| 2026-05-01 10:23 | 46.49900 | -65.53460 | 34803 ft | 503 kts | 67° |
| 2026-05-01 10:24 | 46.56067 | -65.35187 | 34817 ft | 504 kts | 67° |
| 2026-05-01 10:25 | 46.62205 | -65.16874 | 34822 ft | 506 kts | 67° |
| 2026-05-01 10:26 | 46.65277 | -65.07661 | 34838 ft | 507 kts | 67° |
| 2026-05-01 10:27 | 46.71423 | -64.89125 | 34820 ft | 508 kts | 67° |
| 2026-05-01 10:28 | 46.76000 | -64.75240 | 34843 ft | 510 kts | 69° |
| 2026-05-01 10:28 | 46.80604 | -64.61186 | 34845 ft | 513 kts | 69° |
| 2026-05-01 10:29 | 46.85220 | -64.47025 | 34853 ft | 516 kts | 69° |
| 2026-05-01 10:30 | 46.91355 | -64.28085 | 34874 ft | 518 kts | 69° |
| 2026-05-01 10:31 | 46.97496 | -64.08985 | 34881 ft | 518 kts | 69° |
| 2026-05-01 10:32 | 47.02079 | -63.94635 | 34899 ft | 518 kts | 69° |
| 2026-05-01 10:33 | 47.08143 | -63.75523 | 34920 ft | 518 kts | 69° |
| 2026-05-01 10:34 | 47.12686 | -63.61110 | 34930 ft | 519 kts | 68° |
| 2026-05-01 10:34 | 47.15710 | -63.51472 | 34937 ft | 519 kts | 68° |
| 2026-05-01 10:35 | 47.20230 | -63.36993 | 34941 ft | 519 kts | 68° |
| 2026-05-01 10:35 | 47.23214 | -63.27391 | 34944 ft | 519 kts | 68° |
| 2026-05-01 10:36 | 47.27699 | -63.12887 | 34950 ft | 518 kts | 68° |
| 2026-05-01 10:37 | 47.30679 | -63.03204 | 34957 ft | 518 kts | 68° |
| 2026-05-01 10:37 | 47.35129 | -62.88673 | 34965 ft | 518 kts | 68° |
| 2026-05-01 10:38 | 47.38062 | -62.79050 | 34970 ft | 517 kts | 68° |
| 2026-05-01 10:38 | 47.41004 | -62.69361 | 34980 ft | 517 kts | 68° |
| 2026-05-01 10:39 | 47.43933 | -62.59676 | 34986 ft | 516 kts | 68° |
| 2026-05-01 10:39 | 47.46856 | -62.49972 | 34993 ft | 516 kts | 68° |
| 2026-05-01 10:40 | 47.49770 | -62.40261 | 35000 ft | 516 kts | 68° |
| 2026-05-01 10:40 | 47.52672 | -62.30552 | 35002 ft | 515 kts | 68° |
| 2026-05-01 10:41 | 47.55544 | -62.20906 | 35018 ft | 515 kts | 68° |
| 2026-05-01 10:42 | 47.59862 | -62.06332 | 35025 ft | 514 kts | 68° |
| 2026-05-01 10:42 | 47.62732 | -61.96596 | 35037 ft | 514 kts | 68° |
| 2026-05-01 10:43 | 47.65584 | -61.86884 | 35046 ft | 513 kts | 68° |
| 2026-05-01 10:43 | 47.68408 | -61.77229 | 35049 ft | 513 kts | 68° |
| 2026-05-01 10:44 | 47.71236 | -61.67520 | 35054 ft | 512 kts | 68° |
| 2026-05-01 10:44 | 47.74047 | -61.57845 | 35049 ft | 502 kts | 69° |
| 2026-05-01 10:45 | 47.76780 | -61.48398 | 35057 ft | 494 kts | 70° |
| 2026-05-01 10:45 | 47.79470 | -61.39046 | 35084 ft | 495 kts | 70° |
| 2026-05-01 10:46 | 47.82171 | -61.29618 | 35089 ft | 496 kts | 70° |
| 2026-05-01 10:46 | 47.84878 | -61.20141 | 35091 ft | 498 kts | 70° |
| 2026-05-01 10:47 | 47.87582 | -61.10638 | 35096 ft | 498 kts | 70° |
| 2026-05-01 10:47 | 47.90282 | -61.01112 | 35100 ft | 499 kts | 70° |
| 2026-05-01 10:48 | 47.92977 | -60.91567 | 35106 ft | 499 kts | 70° |
| 2026-05-01 10:48 | 47.95648 | -60.82069 | 35110 ft | 499 kts | 70° |
| 2026-05-01 10:49 | 47.98324 | -60.72516 | 35118 ft | 498 kts | 70° |
| 2026-05-01 10:49 | 48.00989 | -60.62964 | 35119 ft | 498 kts | 70° |
| 2026-05-01 10:50 | 48.03639 | -60.53424 | 35127 ft | 497 kts | 70° |
| 2026-05-01 10:50 | 48.06280 | -60.43879 | 35126 ft | 496 kts | 71° |
| 2026-05-01 10:51 | 48.08896 | -60.34389 | 35131 ft | 496 kts | 71° |
| 2026-05-01 10:51 | 48.11095 | -60.26380 | 35135 ft | 496 kts | 71° |
| 2026-05-01 10:52 | 48.14131 | -60.15278 | 35138 ft | 496 kts | 71° |
| 2026-05-01 10:52 | 48.16299 | -60.07319 | 35134 ft | 496 kts | 71° |
| 2026-05-01 10:53 | 48.18901 | -59.97732 | 35144 ft | 496 kts | 71° |
| 2026-05-01 10:53 | 48.21494 | -59.88140 | 35142 ft | 496 kts | 71° |
| 2026-05-01 10:54 | 48.24077 | -59.78540 | 35152 ft | 496 kts | 71° |
| 2026-05-01 10:54 | 48.26640 | -59.68983 | 35150 ft | 497 kts | 71° |
| 2026-05-01 10:55 | 48.29211 | -59.59352 | 35161 ft | 497 kts | 71° |
| 2026-05-01 10:55 | 48.31773 | -59.49712 | 35158 ft | 497 kts | 71° |
| 2026-05-01 10:56 | 48.34329 | -59.40058 | 35167 ft | 497 kts | 71° |
| 2026-05-01 10:56 | 48.36877 | -59.30396 | 35174 ft | 497 kts | 71° |
| 2026-05-01 10:57 | 48.39416 | -59.20726 | 35179 ft | 497 kts | 71° |
| 2026-05-01 10:57 | 48.41948 | -59.11044 | 35182 ft | 497 kts | 71° |
| 2026-05-01 10:58 | 48.44476 | -59.01332 | 35189 ft | 497 kts | 71° |
| 2026-05-01 10:58 | 48.46972 | -58.91707 | 35194 ft | 496 kts | 71° |
| 2026-05-01 10:59 | 48.49475 | -58.82009 | 35197 ft | 496 kts | 71° |
| 2026-05-01 10:59 | 48.51973 | -58.72295 | 35215 ft | 495 kts | 71° |
| 2026-05-01 11:00 | 48.54454 | -58.62600 | 35224 ft | 495 kts | 71° |
| 2026-05-01 11:00 | 48.56927 | -58.52899 | 35223 ft | 495 kts | 71° |
| 2026-05-01 11:01 | 48.59392 | -58.43187 | 35230 ft | 495 kts | 71° |
| 2026-05-01 11:01 | 48.61829 | -58.33542 | 35242 ft | 494 kts | 71° |
| 2026-05-01 11:02 | 48.64272 | -58.23838 | 35242 ft | 494 kts | 71° |
| 2026-05-01 11:02 | 48.66707 | -58.14116 | 35242 ft | 493 kts | 71° |
| 2026-05-01 11:03 | 48.69132 | -58.04400 | 35259 ft | 493 kts | 71° |
| 2026-05-01 11:03 | 48.71548 | -57.94671 | 35264 ft | 493 kts | 71° |
| 2026-05-01 11:04 | 48.73952 | -57.84951 | 35266 ft | 492 kts | 71° |
| 2026-05-01 11:04 | 48.76332 | -57.75284 | 35276 ft | 492 kts | 71° |
| 2026-05-01 11:05 | 48.78724 | -57.65531 | 35282 ft | 492 kts | 71° |
| 2026-05-01 11:05 | 48.81087 | -57.55846 | 35289 ft | 492 kts | 71° |
| 2026-05-01 11:06 | 48.83453 | -57.46113 | 35293 ft | 491 kts | 71° |
| 2026-05-01 11:06 | 48.85811 | -57.36369 | 35291 ft | 491 kts | 71° |
| 2026-05-01 11:07 | 48.89334 | -57.21726 | 35290 ft | 492 kts | 71° |
| 2026-05-01 11:07 | 48.91671 | -57.11959 | 35291 ft | 492 kts | 71° |
| 2026-05-01 11:08 | 48.94000 | -57.02183 | 35290 ft | 492 kts | 72° |
| 2026-05-01 11:09 | 48.97481 | -56.87487 | 35303 ft | 492 kts | 72° |
| 2026-05-01 11:09 | 48.99780 | -56.77726 | 35304 ft | 492 kts | 72° |
| 2026-05-01 11:10 | 49.03232 | -56.62988 | 35311 ft | 492 kts | 72° |
| 2026-05-01 11:10 | 49.05523 | -56.53154 | 35318 ft | 492 kts | 72° |
| 2026-05-01 11:11 | 49.07791 | -56.43370 | 35320 ft | 492 kts | 72° |
| 2026-05-01 11:11 | 49.10062 | -56.33531 | 35322 ft | 492 kts | 72° |
| 2026-05-01 11:12 | 49.12325 | -56.23675 | 35322 ft | 492 kts | 72° |
| 2026-05-01 11:12 | 49.14579 | -56.13821 | 35325 ft | 492 kts | 72° |
| 2026-05-01 11:13 | 49.16823 | -56.03961 | 35326 ft | 492 kts | 72° |
| 2026-05-01 11:13 | 49.19063 | -55.94072 | 35328 ft | 491 kts | 72° |
| 2026-05-01 11:14 | 49.21292 | -55.84183 | 35324 ft | 491 kts | 72° |
| 2026-05-01 11:14 | 49.23498 | -55.74358 | 35327 ft | 491 kts | 72° |
| 2026-05-01 11:15 | 49.25706 | -55.64471 | 35332 ft | 490 kts | 72° |
| 2026-05-01 11:15 | 49.27902 | -55.54596 | 35326 ft | 490 kts | 72° |
| 2026-05-01 11:16 | 49.30090 | -55.44704 | 35329 ft | 490 kts | 73° |
| 2026-05-01 11:16 | 49.32269 | -55.34810 | 35328 ft | 489 kts | 73° |
| 2026-05-01 11:17 | 49.34439 | -55.24910 | 35329 ft | 489 kts | 73° |
| 2026-05-01 11:17 | 49.36585 | -55.15074 | 35330 ft | 489 kts | 73° |
| 2026-05-01 11:18 | 49.38749 | -55.05106 | 35330 ft | 489 kts | 73° |
| 2026-05-01 11:18 | 49.40874 | -54.95266 | 35332 ft | 489 kts | 73° |
| 2026-05-01 11:19 | 49.43007 | -54.85347 | 35333 ft | 489 kts | 73° |
| 2026-05-01 11:19 | 49.45132 | -54.75413 | 35341 ft | 488 kts | 73° |
| 2026-05-01 11:20 | 49.47247 | -54.65482 | 35338 ft | 488 kts | 73° |
| 2026-05-01 11:20 | 49.49350 | -54.55554 | 35342 ft | 489 kts | 74° |
| 2026-05-01 11:21 | 49.51446 | -54.45612 | 35346 ft | 489 kts | 74° |
| 2026-05-01 11:21 | 49.53524 | -54.35709 | 35351 ft | 489 kts | 74° |
| 2026-05-01 11:22 | 49.55609 | -54.25726 | 35356 ft | 489 kts | 74° |
| 2026-05-01 11:22 | 49.57682 | -54.15746 | 35362 ft | 488 kts | 74° |
| 2026-05-01 11:23 | 49.59747 | -54.05754 | 35364 ft | 488 kts | 74° |
| 2026-05-01 11:23 | 49.61792 | -53.95809 | 35367 ft | 488 kts | 75° |
| 2026-05-01 11:24 | 49.63840 | -53.85802 | 35367 ft | 488 kts | 75° |
| 2026-05-01 11:25 | 49.66875 | -53.70876 | 35370 ft | 488 kts | 75° |
| 2026-05-01 11:25 | 49.69904 | -53.55867 | 35374 ft | 487 kts | 75° |
| 2026-05-01 11:26 | 49.72911 | -53.40850 | 35378 ft | 487 kts | 75° |
| 2026-05-01 11:27 | 49.74904 | -53.30836 | 35373 ft | 487 kts | 75° |
| 2026-05-01 11:27 | 49.76874 | -53.20886 | 35382 ft | 486 kts | 75° |
| 2026-05-01 11:28 | 49.78846 | -53.10873 | 35379 ft | 486 kts | 75° |
| 2026-05-01 11:28 | 49.80810 | -53.00846 | 35386 ft | 486 kts | 75° |
| 2026-05-01 11:29 | 49.83734 | -52.85823 | 35387 ft | 485 kts | 75° |
| 2026-05-01 11:30 | 49.86636 | -52.70794 | 35386 ft | 485 kts | 75° |
| 2026-05-01 11:30 | 49.88558 | -52.60778 | 35394 ft | 484 kts | 75° |
| 2026-05-01 11:31 | 49.90469 | -52.50761 | 35395 ft | 484 kts | 75° |
| 2026-05-01 11:31 | 49.92361 | -52.40796 | 35404 ft | 484 kts | 75° |
| 2026-05-01 11:32 | 49.94247 | -52.30803 | 35403 ft | 481 kts | 75° |
| 2026-05-01 11:32 | 49.96118 | -52.20844 | 35396 ft | 478 kts | 75° |
| 2026-05-01 11:33 | 49.97967 | -52.10947 | 35397 ft | 476 kts | 75° |
| 2026-05-01 11:33 | 49.99808 | -52.01081 | 35408 ft | 474 kts | 74° |
| 2026-05-01 11:34 | 50.02129 | -51.91499 | 35413 ft | 473 kts | 69° |
| 2026-05-01 11:34 | 50.04623 | -51.82078 | 35412 ft | 473 kts | 69° |
| 2026-05-01 11:35 | 50.07112 | -51.72595 | 35416 ft | 473 kts | 69° |
| 2026-05-01 11:35 | 50.09575 | -51.63071 | 35416 ft | 473 kts | 69° |
| 2026-05-01 11:36 | 50.12018 | -51.53550 | 35421 ft | 474 kts | 69° |
| 2026-05-01 11:36 | 50.14456 | -51.43998 | 35422 ft | 474 kts | 69° |
| 2026-05-01 11:37 | 50.16479 | -51.36043 | 35426 ft | 474 kts | 69° |
| 2026-05-01 11:37 | 50.19482 | -51.24188 | 35425 ft | 474 kts | 69° |
| 2026-05-01 11:38 | 50.35041 | -50.61773 | 35442 ft | 473 kts | 69° |
| 2026-05-01 11:38 | 50.54810 | -49.85406 | 35460 ft | 473 kts | 60° |
| 2026-05-01 11:39 | 51.00041 | -48.59276 | 35488 ft | 477 kts | 62° |
| 2026-05-01 11:39 | 51.06251 | -48.41215 | 35491 ft | 478 kts | 63° |
| 2026-05-01 11:40 | 51.21136 | -47.97444 | 35511 ft | 481 kts | 63° |
| 2026-05-01 11:40 | 51.71454 | -46.43586 | 35520 ft | 489 kts | 64° |
| 2026-05-01 11:41 | 52.19396 | -44.87412 | 35554 ft | 491 kts | 66° |
| 2026-05-01 11:41 | 52.66022 | -43.25089 | 35508 ft | 488 kts | 69° |
| 2026-05-01 11:42 | 52.90778 | -42.33904 | 35542 ft | 488 kts | 69° |
| 2026-05-01 11:42 | 52.94537 | -42.19774 | 35540 ft | 487 kts | 69° |
| 2026-05-01 11:43 | 53.31348 | -40.76398 | 35510 ft | 486 kts | 70° |
| 2026-05-01 11:43 | 53.55506 | -39.64764 | 35396 ft | 483 kts | 83° |
| 2026-05-01 11:44 | 53.64024 | -38.98531 | 35849 ft | 492 kts | 78° |
| 2026-05-01 11:44 | 53.64827 | -38.92908 | 35712 ft | 496 kts | 77° |
| 2026-05-01 11:44 | 53.72421 | -38.36762 | 35439 ft | 493 kts | 79° |
| 2026-05-01 11:45 | 53.94379 | -36.55954 | 35527 ft | 491 kts | 79° |
| 2026-05-01 11:45 | 54.04421 | -35.64107 | 35662 ft | 501 kts | 79° |
| 2026-05-01 11:45 | 54.13947 | -34.69900 | 35563 ft | 509 kts | 79° |
| 2026-05-01 11:46 | 54.22827 | -33.74218 | 35424 ft | 509 kts | 80° |
| 2026-05-01 11:46 | 54.30830 | -32.79610 | 35408 ft | 507 kts | 80° |
| 2026-05-01 11:46 | 54.44703 | -30.87733 | 35482 ft | 504 kts | 81° |
| 2026-05-01 11:47 | 54.51178 | -29.75108 | 35525 ft | 509 kts | 83° |
| 2026-05-01 11:47 | 54.51543 | -29.62918 | 35439 ft | 510 kts | 83° |
| 2026-05-01 11:48 | 54.53934 | -28.93900 | 35393 ft | 506 kts | 83° |
| 2026-05-01 11:48 | 54.56781 | -27.93124 | 35366 ft | 505 kts | 83° |
| 2026-05-01 11:49 | 54.59656 | -26.29092 | 35383 ft | 502 kts | 85° |
| 2026-05-01 11:49 | 54.59996 | -25.89279 | 35367 ft | 501 kts | 85° |
| 2026-05-01 11:50 | 54.60306 | -24.76153 | 35335 ft | 499 kts | 86° |
| 2026-05-01 11:50 | 54.58909 | -23.14100 | 35309 ft | 497 kts | 88° |
| 2026-05-01 11:51 | 54.54504 | -21.24377 | 35324 ft | 497 kts | 89° |
| 2026-05-01 11:51 | 54.50181 | -20.04319 | 35287 ft | 497 kts | 90° |
| 2026-05-01 11:52 | 54.49766 | -19.84628 | 35141 ft | 489 kts | 82° |
| 2026-05-01 11:52 | 54.49989 | -19.78783 | 35198 ft | 489 kts | 81° |
| 2026-05-01 11:52 | 54.50504 | -19.67048 | 35256 ft | 492 kts | 82° |
| 2026-05-01 11:53 | 54.50845 | -19.55357 | 35261 ft | 492 kts | 83° |
| 2026-05-01 11:53 | 54.52073 | -18.62913 | 35249 ft | 487 kts | 84° |
| 2026-05-01 11:54 | 54.52453 | -18.09373 | 35237 ft | 487 kts | 85° |
| 2026-05-01 11:54 | 54.52486 | -17.97706 | 35230 ft | 487 kts | 85° |
| 2026-05-01 11:55 | 54.52520 | -17.86040 | 35228 ft | 487 kts | 85° |
| 2026-05-01 11:55 | 54.52301 | -16.66088 | 35221 ft | 484 kts | 87° |
| 2026-05-01 11:56 | 54.51880 | -16.19674 | 35189 ft | 482 kts | 87° |
| 2026-05-01 11:56 | 54.50550 | -15.26250 | 35165 ft | 480 kts | 90° |
| 2026-05-01 11:57 | 54.49919 | -14.78830 | 35141 ft | 475 kts | 87° |
| 2026-05-01 11:57 | 54.50059 | -14.67461 | 35145 ft | 476 kts | 88° |
| 2026-05-01 11:58 | 54.48531 | -13.82670 | 34683 ft | 480 kts | 107° |
| 2026-05-01 11:58 | 54.44239 | -13.64860 | 34899 ft | 476 kts | 116° |
| 2026-05-01 11:59 | 54.42829 | -13.59700 | 34982 ft | 479 kts | 114° |
| 2026-05-01 11:59 | 54.40376 | -13.49093 | 35069 ft | 474 kts | 110° |
| 2026-05-01 12:00 | 54.34190 | -13.16828 | 35087 ft | 468 kts | 109° |
| 2026-05-01 12:01 | 54.08966 | -11.90994 | 35075 ft | 466 kts | 112° |
| 2026-05-01 12:01 | 53.87649 | -10.90432 | 35082 ft | 465 kts | 114° |
| 2026-05-01 12:02 | 53.69548 | -10.08946 | 35095 ft | 460 kts | 115° |
| 2026-05-01 12:02 | 53.51149 | -9.29160 | 35064 ft | 455 kts | 117° |
| 2026-05-01 12:03 | 53.32420 | -8.50872 | 35064 ft | 450 kts | 118° |
| 2026-05-01 12:03 | 53.13417 | -7.74191 | 35098 ft | 449 kts | 118° |
| 2026-05-01 12:04 | 53.08816 | -7.52189 | 35113 ft | 462 kts | 104° |
| 2026-05-01 12:04 | 53.03906 | -7.01325 | 35085 ft | 463 kts | 105° |
| 2026-05-01 12:05 | 52.99739 | -6.63048 | 35137 ft | 458 kts | 113° |
| 2026-05-01 12:05 | 52.96543 | -6.48129 | 35117 ft | 458 kts | 115° |
| 2026-05-01 12:06 | 52.94401 | -6.38140 | 35111 ft | 460 kts | 115° |
| 2026-05-01 12:06 | 52.92266 | -6.28125 | 35129 ft | 461 kts | 114° |
| 2026-05-01 12:07 | 52.90124 | -6.18087 | 35137 ft | 462 kts | 115° |
| 2026-05-01 12:07 | 52.87974 | -6.08067 | 35140 ft | 462 kts | 115° |
| 2026-05-01 12:08 | 52.85810 | -5.98038 | 35140 ft | 462 kts | 115° |
| 2026-05-01 12:08 | 52.83637 | -5.88017 | 35145 ft | 462 kts | 115° |
| 2026-05-01 12:09 | 52.81470 | -5.78070 | 35148 ft | 463 kts | 115° |
| 2026-05-01 12:09 | 52.79282 | -5.68074 | 35156 ft | 463 kts | 115° |
| 2026-05-01 12:10 | 52.75682 | -5.51757 | 35167 ft | 463 kts | 116° |
| 2026-05-01 12:11 | 52.70892 | -5.35692 | 35171 ft | 460 kts | 122° |
| 2026-05-01 12:11 | 52.67923 | -5.26341 | 35173 ft | 461 kts | 122° |
| 2026-05-01 12:12 | 52.64961 | -5.16961 | 35173 ft | 461 kts | 122° |
| 2026-05-01 12:12 | 52.62002 | -5.07583 | 35175 ft | 462 kts | 122° |
| 2026-05-01 12:13 | 52.59030 | -4.98188 | 35176 ft | 463 kts | 122° |
| 2026-05-01 12:13 | 52.56051 | -4.88809 | 35174 ft | 463 kts | 122° |
| 2026-05-01 12:14 | 52.53080 | -4.79496 | 35173 ft | 463 kts | 122° |
| 2026-05-01 12:14 | 52.50077 | -4.70118 | 35170 ft | 464 kts | 122° |
| 2026-05-01 12:15 | 52.47064 | -4.60742 | 35173 ft | 464 kts | 122° |
| 2026-05-01 12:15 | 52.23373 | -3.88259 | 35252 ft | 469 kts | 122° |
| 2026-05-01 12:16 | 52.20251 | -3.78863 | 35173 ft | 471 kts | 122° |
| 2026-05-01 12:16 | 52.17129 | -3.69502 | 35175 ft | 469 kts | 122° |
| 2026-05-01 12:17 | 52.14007 | -3.60178 | 35165 ft | 469 kts | 122° |
| 2026-05-01 12:17 | 52.10879 | -3.50873 | 35166 ft | 469 kts | 122° |
| 2026-05-01 12:18 | 52.06967 | -3.39282 | 35169 ft | 469 kts | 122° |
| 2026-05-01 12:18 | 52.01651 | -3.23617 | 35172 ft | 470 kts | 122° |
| 2026-05-01 12:19 | 51.98478 | -3.14313 | 35164 ft | 472 kts | 122° |
| 2026-05-01 12:19 | 51.95288 | -3.04993 | 35158 ft | 472 kts | 122° |
| 2026-05-01 12:20 | 51.92083 | -2.95667 | 35155 ft | 474 kts | 122° |
| 2026-05-01 12:20 | 51.88887 | -2.86400 | 35147 ft | 473 kts | 122° |
| 2026-05-01 12:21 | 51.85670 | -2.77105 | 35157 ft | 473 kts | 122° |
| 2026-05-01 12:21 | 51.82449 | -2.67833 | 35163 ft | 473 kts | 122° |
| 2026-05-01 12:22 | 51.79762 | -2.60124 | 35159 ft | 473 kts | 122° |
| 2026-05-01 12:22 | 51.76527 | -2.50876 | 35156 ft | 473 kts | 122° |
| 2026-05-01 12:23 | 51.73286 | -2.41644 | 35164 ft | 473 kts | 122° |
| 2026-05-01 12:23 | 51.70033 | -2.32412 | 35153 ft | 473 kts | 122° |
| 2026-05-01 12:24 | 51.66774 | -2.23198 | 35161 ft | 473 kts | 122° |
| 2026-05-01 12:24 | 51.63529 | -2.14054 | 35159 ft | 473 kts | 122° |
| 2026-05-01 12:25 | 51.58615 | -2.00271 | 35159 ft | 473 kts | 122° |
| 2026-05-01 12:26 | 51.55334 | -1.91110 | 35160 ft | 473 kts | 122° |
| 2026-05-01 12:26 | 51.50396 | -1.77377 | 35157 ft | 472 kts | 122° |
| 2026-05-01 12:27 | 51.45640 | -1.63609 | 35149 ft | 473 kts | 118° |
| 2026-05-01 12:28 | 51.41473 | -1.49220 | 35148 ft | 473 kts | 117° |
| 2026-05-01 12:29 | 51.37282 | -1.34950 | 35147 ft | 473 kts | 118° |
| 2026-05-01 12:29 | 51.32901 | -1.20816 | 35148 ft | 471 kts | 124° |
| 2026-05-01 12:30 | 51.27135 | -1.08179 | 35158 ft | 469 kts | 129° |
| 2026-05-01 12:31 | 51.23195 | -0.99852 | 35155 ft | 470 kts | 129° |
| 2026-05-01 12:31 | 51.19257 | -0.91540 | 35159 ft | 470 kts | 129° |
| 2026-05-01 12:32 | 51.15309 | -0.83236 | 35164 ft | 470 kts | 129° |
| 2026-05-01 12:32 | 51.09404 | -0.70858 | 35154 ft | 470 kts | 129° |
| 2026-05-01 12:33 | 51.05461 | -0.62575 | 35170 ft | 469 kts | 128° |
| 2026-05-01 12:33 | 51.01963 | -0.53806 | 35198 ft | 470 kts | 123° |
| 2026-05-01 12:34 | 50.98553 | -0.44916 | 35201 ft | 470 kts | 123° |
| 2026-05-01 12:34 | 50.95128 | -0.36079 | 34940 ft | 470 kts | 124° |
| 2026-05-01 12:35 | 50.93434 | -0.31739 | 34746 ft | 466 kts | 124° |
| 2026-05-01 12:35 | 50.91710 | -0.27335 | 34474 ft | 464 kts | 124° |
| 2026-05-01 12:35 | 50.90029 | -0.23051 | 34109 ft | 462 kts | 124° |
| 2026-05-01 12:35 | 50.88336 | -0.18742 | 33724 ft | 459 kts | 124° |
| 2026-05-01 12:36 | 50.86650 | -0.14460 | 33347 ft | 456 kts | 124° |
| 2026-05-01 12:36 | 50.84978 | -0.10216 | 32965 ft | 453 kts | 124° |
| 2026-05-01 12:36 | 50.83312 | -0.05994 | 32595 ft | 449 kts | 124° |
| 2026-05-01 12:36 | 50.81665 | -0.01825 | 32228 ft | 446 kts | 125° |
| 2026-05-01 12:37 | 50.80026 | 0.02314 | 31865 ft | 442 kts | 125° |
| 2026-05-01 12:37 | 50.78397 | 0.06408 | 31507 ft | 438 kts | 126° |
| 2026-05-01 12:37 | 50.76623 | 0.10222 | 31154 ft | 433 kts | 132° |
| 2026-05-01 12:37 | 50.74589 | 0.13780 | 30806 ft | 428 kts | 136° |
| 2026-05-01 12:38 | 50.72462 | 0.16941 | 30465 ft | 423 kts | 142° |
| 2026-05-01 12:38 | 50.70172 | 0.19862 | 30101 ft | 420 kts | 143° |
| 2026-05-01 12:38 | 50.67891 | 0.22724 | 29705 ft | 417 kts | 143° |
| 2026-05-01 12:38 | 50.65634 | 0.25564 | 29319 ft | 414 kts | 143° |
| 2026-05-01 12:39 | 50.63395 | 0.28397 | 28932 ft | 411 kts | 143° |
| 2026-05-01 12:39 | 50.61171 | 0.31223 | 28549 ft | 409 kts | 143° |
| 2026-05-01 12:39 | 50.58961 | 0.34029 | 28176 ft | 406 kts | 143° |
| 2026-05-01 12:39 | 50.56770 | 0.36813 | 27809 ft | 404 kts | 143° |
| 2026-05-01 12:40 | 50.54585 | 0.39594 | 27440 ft | 404 kts | 143° |
| 2026-05-01 12:40 | 50.52376 | 0.42402 | 27098 ft | 412 kts | 142° |
| 2026-05-01 12:40 | 50.50156 | 0.45223 | 26737 ft | 407 kts | 142° |
| 2026-05-01 12:40 | 50.47994 | 0.47965 | 26386 ft | 403 kts | 142° |
| 2026-05-01 12:41 | 50.45812 | 0.50727 | 26220 ft | 404 kts | 142° |
| 2026-05-01 12:41 | 50.43625 | 0.53487 | 26221 ft | 403 kts | 142° |
| 2026-05-01 12:41 | 50.41437 | 0.56245 | 26216 ft | 403 kts | 142° |
| 2026-05-01 12:41 | 50.39251 | 0.59002 | 26210 ft | 403 kts | 142° |
| 2026-05-01 12:42 | 50.37065 | 0.61753 | 26211 ft | 403 kts | 142° |
| 2026-05-01 12:42 | 50.34877 | 0.64502 | 26211 ft | 403 kts | 142° |
| 2026-05-01 12:42 | 50.32685 | 0.67259 | 26023 ft | 405 kts | 142° |
| 2026-05-01 12:42 | 50.30497 | 0.70010 | 25842 ft | 402 kts | 142° |
| 2026-05-01 12:43 | 50.28326 | 0.72739 | 25643 ft | 399 kts | 142° |
| 2026-05-01 12:43 | 50.26166 | 0.75450 | 25484 ft | 398 kts | 142° |
| 2026-05-01 12:43 | 50.24009 | 0.78155 | 25319 ft | 397 kts | 142° |
| 2026-05-01 12:43 | 50.21857 | 0.80851 | 25140 ft | 396 kts | 142° |
| 2026-05-01 12:44 | 50.19709 | 0.83537 | 24976 ft | 395 kts | 142° |
| 2026-05-01 12:44 | 50.17582 | 0.86191 | 24798 ft | 387 kts | 142° |
| 2026-05-01 12:44 | 50.13461 | 0.91309 | 24443 ft | 373 kts | 142° |
| 2026-05-01 12:45 | 50.09425 | 0.96312 | 24275 ft | 370 kts | 142° |
| 2026-05-01 12:45 | 50.07429 | 0.98781 | 24231 ft | 372 kts | 142° |
| 2026-05-01 12:45 | 50.05366 | 1.01222 | 24211 ft | 371 kts | 148° |
| 2026-05-01 12:46 | 50.03103 | 1.03146 | 24213 ft | 370 kts | 154° |
| 2026-05-01 12:46 | 50.00774 | 1.04865 | 24206 ft | 371 kts | 155° |
| 2026-05-01 12:46 | 49.98419 | 1.06554 | 23906 ft | 375 kts | 155° |
| 2026-05-01 12:46 | 49.96039 | 1.08266 | 23378 ft | 376 kts | 155° |
| 2026-05-01 12:47 | 49.93697 | 1.09972 | 22858 ft | 369 kts | 155° |
| 2026-05-01 12:47 | 49.91386 | 1.11673 | 22367 ft | 366 kts | 155° |
| 2026-05-01 12:47 | 49.89098 | 1.13371 | 21869 ft | 363 kts | 154° |
| 2026-05-01 12:47 | 49.86827 | 1.15062 | 21378 ft | 361 kts | 154° |
| 2026-05-01 12:48 | 49.84598 | 1.16725 | 20915 ft | 358 kts | 154° |
| 2026-05-01 12:48 | 49.82363 | 1.18395 | 20433 ft | 355 kts | 154° |
| 2026-05-01 12:48 | 49.80146 | 1.20051 | 19976 ft | 353 kts | 155° |
| 2026-05-01 12:48 | 49.77938 | 1.21698 | 19534 ft | 351 kts | 155° |
| 2026-05-01 12:49 | 49.75738 | 1.23337 | 19059 ft | 349 kts | 155° |
| 2026-05-01 12:49 | 49.73556 | 1.24960 | 18623 ft | 346 kts | 155° |
| 2026-05-01 12:49 | 49.71388 | 1.26573 | 18130 ft | 344 kts | 155° |
| 2026-05-01 12:49 | 49.69238 | 1.28171 | 17626 ft | 342 kts | 155° |
| 2026-05-01 12:50 | 49.67097 | 1.29760 | 17134 ft | 340 kts | 155° |
| 2026-05-01 12:50 | 49.64968 | 1.31338 | 16661 ft | 338 kts | 155° |
| 2026-05-01 12:50 | 49.62878 | 1.32888 | 16173 ft | 337 kts | 155° |
| 2026-05-01 12:50 | 49.60768 | 1.34449 | 15708 ft | 335 kts | 155° |
| 2026-05-01 12:51 | 49.58673 | 1.35998 | 15245 ft | 333 kts | 155° |
| 2026-05-01 12:51 | 49.56585 | 1.37539 | 14781 ft | 332 kts | 155° |
| 2026-05-01 12:51 | 49.52437 | 1.40599 | 13867 ft | 329 kts | 155° |
| 2026-05-01 12:52 | 49.50378 | 1.42116 | 13375 ft | 328 kts | 155° |
| 2026-05-01 12:52 | 49.46271 | 1.45136 | 12392 ft | 326 kts | 155° |
| 2026-05-01 12:52 | 49.44227 | 1.46638 | 11924 ft | 325 kts | 155° |
| 2026-05-01 12:53 | 49.40151 | 1.49629 | 10986 ft | 324 kts | 155° |
| 2026-05-01 12:53 | 49.38117 | 1.51119 | 10536 ft | 323 kts | 155° |
| 2026-05-01 12:53 | 49.36105 | 1.52592 | 10271 ft | 316 kts | 155° |
| 2026-05-01 12:54 | 49.34156 | 1.54016 | 10213 ft | 303 kts | 155° |
| 2026-05-01 12:54 | 49.30901 | 1.57334 | 10204 ft | 273 kts | 126° |
| 2026-05-01 12:54 | 49.30023 | 1.59908 | 10212 ft | 275 kts | 112° |
| 2026-05-01 12:55 | 49.29534 | 1.65651 | 10212 ft | 280 kts | 96° |
| 2026-05-01 12:55 | 49.29438 | 1.68633 | 10215 ft | 281 kts | 96° |
| 2026-05-01 12:55 | 49.29327 | 1.71609 | 10202 ft | 279 kts | 96° |
| 2026-05-01 12:56 | 49.28884 | 1.74452 | 10026 ft | 275 kts | 121° |
| 2026-05-01 12:56 | 49.27633 | 1.76619 | 9857 ft | 271 kts | 145° |
| 2026-05-01 12:56 | 49.25979 | 1.77971 | 9649 ft | 269 kts | 156° |
| 2026-05-01 12:56 | 49.24258 | 1.79105 | 9449 ft | 269 kts | 157° |
| 2026-05-01 12:57 | 49.22533 | 1.80241 | 9187 ft | 271 kts | 157° |
| 2026-05-01 12:57 | 49.19071 | 1.82552 | 8546 ft | 269 kts | 157° |
| 2026-05-01 12:57 | 49.17382 | 1.83686 | 8268 ft | 266 kts | 157° |
| 2026-05-01 12:58 | 49.15696 | 1.84819 | 7971 ft | 264 kts | 157° |
| 2026-05-01 12:58 | 49.14024 | 1.85943 | 7659 ft | 261 kts | 157° |
| 2026-05-01 12:58 | 49.12365 | 1.87057 | 7371 ft | 258 kts | 157° |
| 2026-05-01 12:59 | 49.09097 | 1.89251 | 6782 ft | 254 kts | 157° |
| 2026-05-01 12:59 | 49.07484 | 1.90333 | 6468 ft | 252 kts | 157° |
| 2026-05-01 12:59 | 49.04292 | 1.92471 | 5884 ft | 248 kts | 157° |
| 2026-05-01 13:00 | 49.01153 | 1.94600 | 5259 ft | 244 kts | 152° |
| 2026-05-01 13:01 | 48.99394 | 1.98348 | 5008 ft | 238 kts | 109° |
| 2026-05-01 13:01 | 48.98979 | 2.00844 | 5016 ft | 247 kts | 105° |
| 2026-05-01 13:01 | 48.98212 | 2.05907 | 5007 ft | 241 kts | 105° |
| 2026-05-01 13:02 | 48.97825 | 2.08369 | 4997 ft | 238 kts | 106° |
| 2026-05-01 13:07 | 48.98955 | 2.50641 | 1177 ft | 149 kts | 88° |
| 2026-05-01 13:07 | 48.99056 | 2.52200 | 962 ft | 150 kts | 86° |
| 2026-05-01 13:07 | 48.99140 | 2.53756 | 763 ft | 146 kts | 86° |
| 2026-05-01 13:08 | 48.99228 | 2.55291 | 565 ft | 145 kts | 85° |
| 2026-05-01 13:08 | 48.99311 | 2.56820 | 385 ft | 145 kts | 86° |
| 2026-05-01 13:08 | 48.99382 | 2.58233 | 359 ft | 112 kts | 85° |
| 2026-05-01 13:08 | 48.99420 | 2.58905 | 358 ft | 76 kts | 85° |
| 2026-05-01 13:09 | 48.99514 | 2.59411 | 367 ft | 31 kts | 65° |
| 2026-05-01 13:09 | 48.99556 | 2.59546 | 363 ft | 10 kts | 64° |
| 2026-05-01 13:09 | 48.99586 | 2.59638 | 367 ft | 10 kts | 60° |
| 2026-05-01 13:09 | 48.99643 | 2.59689 | 364 ft | 10 kts | 6° |
| 2026-05-01 13:10 | 48.99714 | 2.59686 | 360 ft | 10 kts | 355° |
| 2026-05-01 13:10 | 48.99787 | 2.59676 | 366 ft | 12 kts | 354° |
| 2026-05-01 13:10 | 48.99872 | 2.59664 | 360 ft | 12 kts | 355° |
| 2026-05-01 13:10 | 48.99955 | 2.59637 | 368 ft | 12 kts | 326° |
| 2026-05-01 13:11 | 49.00005 | 2.59532 | 366 ft | 13 kts | 318° |
| 2026-05-01 13:11 | 49.00050 | 2.59476 | 367 ft | 8 kts | 315° |
| 2026-05-01 13:11 | 49.00076 | 2.59398 | 365 ft | 9 kts | 274° |
| 2026-05-01 13:11 | 49.00067 | 2.59306 | 364 ft | 9 kts | 262° |
| 2026-05-01 13:12 | 49.00060 | 2.59204 | 365 ft | 10 kts | 265° |
| 2026-05-01 13:12 | 49.00054 | 2.59090 | 359 ft | 11 kts | 266° |
| 2026-05-01 13:12 | 49.00048 | 2.58968 | 365 ft | 12 kts | 264° |
| 2026-05-01 13:12 | 49.00040 | 2.58830 | 359 ft | 14 kts | 265° |
| 2026-05-01 13:13 | 49.00031 | 2.58671 | 359 ft | 16 kts | 265° |
| 2026-05-01 13:13 | 49.00021 | 2.58492 | 359 ft | 18 kts | 265° |
| 2026-05-01 13:13 | 49.00010 | 2.58294 | 364 ft | 20 kts | 265° |
| 2026-05-01 13:13 | 49.00000 | 2.58079 | 365 ft | 21 kts | 266° |
| 2026-05-01 13:14 | 48.99989 | 2.57868 | 365 ft | 19 kts | 265° |
| 2026-05-01 13:14 | 49.00020 | 2.57745 | 364 ft | 12 kts | 322° |
| 2026-05-01 13:14 | 49.00055 | 2.57637 | 365 ft | 11 kts | 271° |
| 2026-05-01 13:14 | 49.00062 | 2.57555 | 366 ft | 6 kts | 310° |
| 2026-05-01 13:15 | 49.00083 | 2.57539 | 362 ft | 2 kts | 340° |
| 2026-05-01 13:15 | 49.00096 | 2.57536 | 365 ft | 2 kts | 348° |
| 2026-05-01 13:15 | 49.00119 | 2.57531 | 362 ft | 3 kts | 352° |
| 2026-05-01 13:15 | 49.00124 | 2.57530 | 361 ft | 0 kts | 353° |